sensor_id;sensor_type;location;lat;lon;timestamp;P1;durP1;ratioP1;P2;durP2;ratioP2
3259;SDS011;22469;48.150;14.004;2022-07-18T00:02:05;5.30;;;4.90;;
3259;SDS011;22469;48.150;14.004;2022-07-18T00:04:32;5.80;;;5.30;;
3259;SDS011;22469;48.150;14.004;2022-07-18T00:07:00;6.20;;;5.80;;
3259;SDS011;22469;48.150;14.004;2022-07-18T00:09:27;5.90;;;5.50;;
3259;SDS011;22469;48.150;14.004;2022-07-18T00:12:01;5.53;;;5.20;;
3259;SDS011;22469;48.150;14.004;2022-07-18T00:14:29;5.47;;;5.10;;
3259;SDS011;22469;48.150;14.004;2022-07-18T00:16:56;5.93;;;5.50;;
3259;SDS011;22469;48.150;14.004;2022-07-18T00:19:25;5.20;;;4.80;;
3259;SDS011;22469;48.150;14.004;2022-07-18T00:21:52;6.17;;;5.60;;
3259;SDS011;22469;48.150;14.004;2022-07-18T00:24:20;5.53;;;5.03;;
3259;SDS011;22469;48.150;14.004;2022-07-18T00:26:47;6.07;;;5.63;;
3259;SDS011;22469;48.150;14.004;2022-07-18T00:29:14;6.17;;;5.67;;
3259;SDS011;22469;48.150;14.004;2022-07-18T00:31:41;5.37;;;5.07;;
3259;SDS011;22469;48.150;14.004;2022-07-18T00:34:08;6.37;;;6.00;;
3259;SDS011;22469;48.150;14.004;2022-07-18T00:36:35;5.27;;;4.83;;
3259;SDS011;22469;48.150;14.004;2022-07-18T00:39:03;7.10;;;5.77;;
3259;SDS011;22469;48.150;14.004;2022-07-18T00:41:30;5.53;;;5.03;;
3259;SDS011;22469;48.150;14.004;2022-07-18T00:43:57;6.63;;;5.90;;
3259;SDS011;22469;48.150;14.004;2022-07-18T00:46:25;5.83;;;5.43;;
3259;SDS011;22469;48.150;14.004;2022-07-18T00:48:54;5.67;;;5.27;;
3259;SDS011;22469;48.150;14.004;2022-07-18T00:51:22;5.87;;;5.40;;
3259;SDS011;22469;48.150;14.004;2022-07-18T00:53:49;5.90;;;5.40;;
3259;SDS011;22469;48.150;14.004;2022-07-18T00:56:17;7.67;;;6.20;;
3259;SDS011;22469;48.150;14.004;2022-07-18T00:58:46;5.83;;;4.97;;
3259;SDS011;22469;48.150;14.004;2022-07-18T01:01:14;5.27;;;4.97;;
3259;SDS011;22469;48.150;14.004;2022-07-18T01:03:59;5.70;;;5.20;;
3259;SDS011;22469;48.150;14.004;2022-07-18T01:06:27;6.00;;;5.50;;
3259;SDS011;22469;48.150;14.004;2022-07-18T01:08:55;6.10;;;5.67;;
3259;SDS011;22469;48.150;14.004;2022-07-18T01:11:24;6.33;;;5.93;;
3259;SDS011;22469;48.150;14.004;2022-07-18T01:13:53;5.90;;;5.40;;
3259;SDS011;22469;48.150;14.004;2022-07-18T01:16:21;6.00;;;5.60;;
3259;SDS011;22469;48.150;14.004;2022-07-18T01:18:49;5.93;;;5.47;;
3259;SDS011;22469;48.150;14.004;2022-07-18T01:21:17;6.10;;;5.70;;
3259;SDS011;22469;48.150;14.004;2022-07-18T01:23:44;5.90;;;5.47;;
3259;SDS011;22469;48.150;14.004;2022-07-18T01:26:12;5.70;;;5.30;;
3259;SDS011;22469;48.150;14.004;2022-07-18T01:28:41;5.90;;;5.50;;
3259;SDS011;22469;48.150;14.004;2022-07-18T01:31:08;5.80;;;5.30;;
3259;SDS011;22469;48.150;14.004;2022-07-18T01:33:36;5.60;;;5.30;;
3259;SDS011;22469;48.150;14.004;2022-07-18T01:36:04;6.10;;;5.50;;
3259;SDS011;22469;48.150;14.004;2022-07-18T01:38:33;5.77;;;5.40;;
3259;SDS011;22469;48.150;14.004;2022-07-18T01:41:01;6.07;;;5.77;;
3259;SDS011;22469;48.150;14.004;2022-07-18T01:43:30;6.17;;;5.67;;
3259;SDS011;22469;48.150;14.004;2022-07-18T01:45:57;5.80;;;5.27;;
3259;SDS011;22469;48.150;14.004;2022-07-18T01:48:25;5.47;;;4.97;;
3259;SDS011;22469;48.150;14.004;2022-07-18T01:50:52;5.37;;;5.07;;
3259;SDS011;22469;48.150;14.004;2022-07-18T01:53:19;5.30;;;5.00;;
3259;SDS011;22469;48.150;14.004;2022-07-18T01:55:47;6.00;;;5.60;;
3259;SDS011;22469;48.150;14.004;2022-07-18T01:58:14;5.93;;;5.50;;
3259;SDS011;22469;48.150;14.004;2022-07-18T02:00:42;7.23;;;5.80;;
3259;SDS011;22469;48.150;14.004;2022-07-18T02:03:09;5.30;;;5.00;;
3259;SDS011;22469;48.150;14.004;2022-07-18T02:05:36;6.20;;;5.70;;
3259;SDS011;22469;48.150;14.004;2022-07-18T02:08:03;5.77;;;5.20;;
3259;SDS011;22469;48.150;14.004;2022-07-18T02:10:31;5.53;;;5.20;;
3259;SDS011;22469;48.150;14.004;2022-07-18T02:12:58;6.67;;;6.17;;
3259;SDS011;22469;48.150;14.004;2022-07-18T02:15:25;6.37;;;6.07;;
3259;SDS011;22469;48.150;14.004;2022-07-18T02:17:52;6.40;;;5.93;;
3259;SDS011;22469;48.150;14.004;2022-07-18T02:20:19;5.67;;;5.37;;
3259;SDS011;22469;48.150;14.004;2022-07-18T02:22:46;5.83;;;5.33;;
3259;SDS011;22469;48.150;14.004;2022-07-18T02:25:14;6.70;;;6.30;;
3259;SDS011;22469;48.150;14.004;2022-07-18T02:27:41;6.00;;;5.60;;
3259;SDS011;22469;48.150;14.004;2022-07-18T02:30:09;5.90;;;5.53;;
3259;SDS011;22469;48.150;14.004;2022-07-18T02:32:37;5.93;;;5.53;;
3259;SDS011;22469;48.150;14.004;2022-07-18T02:35:06;6.50;;;6.00;;
3259;SDS011;22469;48.150;14.004;2022-07-18T02:37:35;7.30;;;6.77;;
3259;SDS011;22469;48.150;14.004;2022-07-18T02:40:08;6.37;;;5.87;;
3259;SDS011;22469;48.150;14.004;2022-07-18T02:42:37;6.63;;;6.03;;
3259;SDS011;22469;48.150;14.004;2022-07-18T02:45:06;7.00;;;6.40;;
3259;SDS011;22469;48.150;14.004;2022-07-18T02:47:34;6.40;;;5.90;;
3259;SDS011;22469;48.150;14.004;2022-07-18T02:50:02;6.90;;;6.40;;
3259;SDS011;22469;48.150;14.004;2022-07-18T02:52:29;6.50;;;6.00;;
3259;SDS011;22469;48.150;14.004;2022-07-18T02:54:57;6.50;;;6.00;;
3259;SDS011;22469;48.150;14.004;2022-07-18T02:57:27;6.70;;;6.20;;
3259;SDS011;22469;48.150;14.004;2022-07-18T02:59:54;6.37;;;5.97;;
3259;SDS011;22469;48.150;14.004;2022-07-18T03:02:22;7.93;;;7.00;;
3259;SDS011;22469;48.150;14.004;2022-07-18T03:04:49;6.60;;;6.20;;
3259;SDS011;22469;48.150;14.004;2022-07-18T03:07:16;6.60;;;6.00;;
3259;SDS011;22469;48.150;14.004;2022-07-18T03:09:43;6.20;;;5.80;;
3259;SDS011;22469;48.150;14.004;2022-07-18T03:12:10;7.13;;;6.57;;
3259;SDS011;22469;48.150;14.004;2022-07-18T03:14:37;6.40;;;6.00;;
3259;SDS011;22469;48.150;14.004;2022-07-18T03:17:04;7.33;;;6.80;;
3259;SDS011;22469;48.150;14.004;2022-07-18T03:19:32;7.13;;;6.50;;
3259;SDS011;22469;48.150;14.004;2022-07-18T03:21:59;6.27;;;5.87;;
3259;SDS011;22469;48.150;14.004;2022-07-18T03:24:27;7.13;;;6.40;;
3259;SDS011;22469;48.150;14.004;2022-07-18T03:26:54;8.10;;;6.40;;
3259;SDS011;22469;48.150;14.004;2022-07-18T03:29:22;6.73;;;6.23;;
3259;SDS011;22469;48.150;14.004;2022-07-18T03:31:50;7.47;;;6.97;;
3259;SDS011;22469;48.150;14.004;2022-07-18T03:34:17;6.93;;;6.43;;
3259;SDS011;22469;48.150;14.004;2022-07-18T03:36:45;6.80;;;6.30;;
3259;SDS011;22469;48.150;14.004;2022-07-18T03:39:13;6.83;;;6.43;;
3259;SDS011;22469;48.150;14.004;2022-07-18T03:41:40;7.60;;;7.10;;
3259;SDS011;22469;48.150;14.004;2022-07-18T03:44:08;7.80;;;7.20;;
3259;SDS011;22469;48.150;14.004;2022-07-18T03:46:35;6.53;;;5.93;;
3259;SDS011;22469;48.150;14.004;2022-07-18T03:49:03;6.93;;;6.43;;
3259;SDS011;22469;48.150;14.004;2022-07-18T03:51:30;7.80;;;7.17;;
3259;SDS011;22469;48.150;14.004;2022-07-18T03:53:58;9.13;;;8.37;;
3259;SDS011;22469;48.150;14.004;2022-07-18T03:56:25;6.70;;;6.20;;
3259;SDS011;22469;48.150;14.004;2022-07-18T03:58:52;7.50;;;6.90;;
3259;SDS011;22469;48.150;14.004;2022-07-18T04:01:19;7.40;;;6.90;;
3259;SDS011;22469;48.150;14.004;2022-07-18T04:03:46;6.87;;;6.37;;
3259;SDS011;22469;48.150;14.004;2022-07-18T04:06:13;6.63;;;6.13;;
3259;SDS011;22469;48.150;14.004;2022-07-18T04:08:40;7.70;;;6.43;;
3259;SDS011;22469;48.150;14.004;2022-07-18T04:11:07;8.40;;;7.60;;
3259;SDS011;22469;48.150;14.004;2022-07-18T04:13:35;7.80;;;7.30;;
3259;SDS011;22469;48.150;14.004;2022-07-18T04:16:02;7.50;;;7.00;;
3259;SDS011;22469;48.150;14.004;2022-07-18T04:18:29;7.67;;;7.17;;
3259;SDS011;22469;48.150;14.004;2022-07-18T04:21:03;8.13;;;7.43;;
3259;SDS011;22469;48.150;14.004;2022-07-18T04:23:30;7.97;;;7.37;;
3259;SDS011;22469;48.150;14.004;2022-07-18T04:25:57;7.57;;;7.00;;
3259;SDS011;22469;48.150;14.004;2022-07-18T04:28:25;7.73;;;6.90;;
3259;SDS011;22469;48.150;14.004;2022-07-18T04:30:52;7.57;;;7.10;;
3259;SDS011;22469;48.150;14.004;2022-07-18T04:33:19;7.10;;;6.60;;
3259;SDS011;22469;48.150;14.004;2022-07-18T04:35:47;7.97;;;7.37;;
3259;SDS011;22469;48.150;14.004;2022-07-18T04:38:15;8.57;;;7.87;;
3259;SDS011;22469;48.150;14.004;2022-07-18T04:40:42;8.00;;;7.50;;
3259;SDS011;22469;48.150;14.004;2022-07-18T04:43:09;8.17;;;7.57;;
3259;SDS011;22469;48.150;14.004;2022-07-18T04:45:36;7.73;;;7.13;;
3259;SDS011;22469;48.150;14.004;2022-07-18T04:48:04;7.70;;;7.13;;
3259;SDS011;22469;48.150;14.004;2022-07-18T04:50:32;7.90;;;7.20;;
3259;SDS011;22469;48.150;14.004;2022-07-18T04:53:00;8.87;;;8.07;;
3259;SDS011;22469;48.150;14.004;2022-07-18T04:55:27;7.73;;;7.23;;
3259;SDS011;22469;48.150;14.004;2022-07-18T04:57:55;9.03;;;8.37;;
3259;SDS011;22469;48.150;14.004;2022-07-18T05:00:24;8.30;;;7.60;;
3259;SDS011;22469;48.150;14.004;2022-07-18T05:02:54;8.40;;;7.70;;
3259;SDS011;22469;48.150;14.004;2022-07-18T05:05:24;8.20;;;7.60;;
3259;SDS011;22469;48.150;14.004;2022-07-18T05:08:01;9.57;;;8.80;;
3259;SDS011;22469;48.150;14.004;2022-07-18T05:10:28;8.27;;;7.67;;
3259;SDS011;22469;48.150;14.004;2022-07-18T05:12:56;8.47;;;7.87;;
3259;SDS011;22469;48.150;14.004;2022-07-18T05:15:23;7.63;;;6.93;;
3259;SDS011;22469;48.150;14.004;2022-07-18T05:17:52;8.63;;;8.03;;
3259;SDS011;22469;48.150;14.004;2022-07-18T05:20:21;8.23;;;7.63;;
3259;SDS011;22469;48.150;14.004;2022-07-18T05:22:51;8.77;;;8.00;;
3259;SDS011;22469;48.150;14.004;2022-07-18T05:25:19;7.67;;;7.17;;
3259;SDS011;22469;48.150;14.004;2022-07-18T05:27:49;8.47;;;7.83;;
3259;SDS011;22469;48.150;14.004;2022-07-18T05:30:18;8.27;;;7.77;;
3259;SDS011;22469;48.150;14.004;2022-07-18T05:32:46;8.80;;;8.10;;
3259;SDS011;22469;48.150;14.004;2022-07-18T05:35:14;8.03;;;7.50;;
3259;SDS011;22469;48.150;14.004;2022-07-18T05:37:41;8.27;;;7.13;;
3259;SDS011;22469;48.150;14.004;2022-07-18T05:40:10;7.37;;;6.87;;
3259;SDS011;22469;48.150;14.004;2022-07-18T05:42:38;8.47;;;7.80;;
3259;SDS011;22469;48.150;14.004;2022-07-18T05:45:22;7.50;;;7.07;;
3259;SDS011;22469;48.150;14.004;2022-07-18T05:47:51;9.53;;;8.83;;
3259;SDS011;22469;48.150;14.004;2022-07-18T05:50:21;9.40;;;8.60;;
3259;SDS011;22469;48.150;14.004;2022-07-18T05:52:49;7.57;;;6.97;;
3259;SDS011;22469;48.150;14.004;2022-07-18T05:55:17;7.43;;;6.93;;
3259;SDS011;22469;48.150;14.004;2022-07-18T05:57:44;7.67;;;6.90;;
3259;SDS011;22469;48.150;14.004;2022-07-18T06:00:12;6.77;;;6.27;;
3259;SDS011;22469;48.150;14.004;2022-07-18T06:02:40;7.57;;;7.00;;
3259;SDS011;22469;48.150;14.004;2022-07-18T06:05:07;6.67;;;6.03;;
3259;SDS011;22469;48.150;14.004;2022-07-18T06:07:55;7.60;;;7.10;;
3259;SDS011;22469;48.150;14.004;2022-07-18T06:10:23;6.50;;;6.10;;
3259;SDS011;22469;48.150;14.004;2022-07-18T06:12:53;7.43;;;6.63;;
3259;SDS011;22469;48.150;14.004;2022-07-18T06:15:20;7.10;;;6.47;;
3259;SDS011;22469;48.150;14.004;2022-07-18T06:17:47;7.30;;;6.23;;
3259;SDS011;22469;48.150;14.004;2022-07-18T06:20:15;7.73;;;7.13;;
3259;SDS011;22469;48.150;14.004;2022-07-18T06:22:42;8.20;;;7.47;;
3259;SDS011;22469;48.150;14.004;2022-07-18T06:25:10;7.10;;;6.40;;
3259;SDS011;22469;48.150;14.004;2022-07-18T06:27:37;6.63;;;6.10;;
3259;SDS011;22469;48.150;14.004;2022-07-18T06:30:05;6.83;;;6.23;;
3259;SDS011;22469;48.150;14.004;2022-07-18T06:32:34;5.40;;;5.00;;
3259;SDS011;22469;48.150;14.004;2022-07-18T06:35:01;6.27;;;5.80;;
3259;SDS011;22469;48.150;14.004;2022-07-18T06:37:29;5.83;;;5.33;;
3259;SDS011;22469;48.150;14.004;2022-07-18T06:39:56;6.57;;;6.07;;
3259;SDS011;22469;48.150;14.004;2022-07-18T06:42:28;5.43;;;4.90;;
3259;SDS011;22469;48.150;14.004;2022-07-18T06:44:55;6.57;;;5.70;;
3259;SDS011;22469;48.150;14.004;2022-07-18T06:47:22;7.70;;;5.20;;
3259;SDS011;22469;48.150;14.004;2022-07-18T06:49:49;5.13;;;4.57;;
3259;SDS011;22469;48.150;14.004;2022-07-18T06:52:16;9.83;;;4.90;;
3259;SDS011;22469;48.150;14.004;2022-07-18T06:54:43;6.87;;;5.63;;
3259;SDS011;22469;48.150;14.004;2022-07-18T06:57:10;5.53;;;5.03;;
3259;SDS011;22469;48.150;14.004;2022-07-18T06:59:37;5.43;;;4.93;;
3259;SDS011;22469;48.150;14.004;2022-07-18T07:02:11;4.53;;;4.30;;
3259;SDS011;22469;48.150;14.004;2022-07-18T07:04:40;11.37;;;5.20;;
3259;SDS011;22469;48.150;14.004;2022-07-18T07:07:07;7.43;;;4.10;;
3259;SDS011;22469;48.150;14.004;2022-07-18T07:09:34;4.70;;;4.30;;
3259;SDS011;22469;48.150;14.004;2022-07-18T07:12:01;7.17;;;4.90;;
3259;SDS011;22469;48.150;14.004;2022-07-18T07:14:28;4.17;;;3.60;;
3259;SDS011;22469;48.150;14.004;2022-07-18T07:16:55;5.00;;;4.23;;
3259;SDS011;22469;48.150;14.004;2022-07-18T07:19:23;5.80;;;4.40;;
3259;SDS011;22469;48.150;14.004;2022-07-18T07:21:52;3.97;;;3.63;;
3259;SDS011;22469;48.150;14.004;2022-07-18T07:24:19;4.70;;;3.37;;
3259;SDS011;22469;48.150;14.004;2022-07-18T07:26:46;10.17;;;3.77;;
3259;SDS011;22469;48.150;14.004;2022-07-18T07:29:20;5.97;;;4.17;;
3259;SDS011;22469;48.150;14.004;2022-07-18T07:31:48;3.60;;;3.40;;
3259;SDS011;22469;48.150;14.004;2022-07-18T07:34:15;3.70;;;3.50;;
3259;SDS011;22469;48.150;14.004;2022-07-18T07:36:42;9.13;;;3.50;;
3259;SDS011;22469;48.150;14.004;2022-07-18T07:39:09;7.57;;;4.53;;
3259;SDS011;22469;48.150;14.004;2022-07-18T07:41:36;8.00;;;3.90;;
3259;SDS011;22469;48.150;14.004;2022-07-18T07:44:03;6.00;;;4.23;;
3259;SDS011;22469;48.150;14.004;2022-07-18T07:46:31;4.07;;;3.77;;
3259;SDS011;22469;48.150;14.004;2022-07-18T07:48:58;5.00;;;4.70;;
3259;SDS011;22469;48.150;14.004;2022-07-18T07:51:25;4.20;;;3.80;;
3259;SDS011;22469;48.150;14.004;2022-07-18T07:54:00;4.47;;;4.03;;
3259;SDS011;22469;48.150;14.004;2022-07-18T07:56:29;4.37;;;4.07;;
3259;SDS011;22469;48.150;14.004;2022-07-18T07:58:56;4.10;;;3.80;;
3259;SDS011;22469;48.150;14.004;2022-07-18T08:01:23;3.90;;;3.60;;
3259;SDS011;22469;48.150;14.004;2022-07-18T08:03:51;4.23;;;3.73;;
3259;SDS011;22469;48.150;14.004;2022-07-18T08:06:18;5.07;;;4.53;;
3259;SDS011;22469;48.150;14.004;2022-07-18T08:08:45;4.23;;;3.93;;
3259;SDS011;22469;48.150;14.004;2022-07-18T08:11:12;5.50;;;4.17;;
3259;SDS011;22469;48.150;14.004;2022-07-18T08:13:41;4.60;;;4.20;;
3259;SDS011;22469;48.150;14.004;2022-07-18T08:16:08;6.03;;;4.07;;
3259;SDS011;22469;48.150;14.004;2022-07-18T08:18:35;4.57;;;3.87;;
3259;SDS011;22469;48.150;14.004;2022-07-18T08:21:03;5.53;;;3.87;;
3259;SDS011;22469;48.150;14.004;2022-07-18T08:23:30;3.60;;;3.30;;
3259;SDS011;22469;48.150;14.004;2022-07-18T08:25:57;3.83;;;3.40;;
3259;SDS011;22469;48.150;14.004;2022-07-18T08:28:24;3.73;;;3.30;;
3259;SDS011;22469;48.150;14.004;2022-07-18T08:30:51;7.00;;;4.23;;
3259;SDS011;22469;48.150;14.004;2022-07-18T08:33:18;3.53;;;3.23;;
3259;SDS011;22469;48.150;14.004;2022-07-18T08:35:45;3.73;;;3.53;;
3259;SDS011;22469;48.150;14.004;2022-07-18T08:38:12;5.33;;;3.30;;
3259;SDS011;22469;48.150;14.004;2022-07-18T08:40:40;5.10;;;3.40;;
3259;SDS011;22469;48.150;14.004;2022-07-18T08:43:07;3.73;;;3.37;;
3259;SDS011;22469;48.150;14.004;2022-07-18T08:45:48;4.33;;;3.40;;
3259;SDS011;22469;48.150;14.004;2022-07-18T08:48:16;11.43;;;3.23;;
3259;SDS011;22469;48.150;14.004;2022-07-18T08:50:44;3.90;;;3.50;;
3259;SDS011;22469;48.150;14.004;2022-07-18T08:53:13;3.33;;;3.13;;
3259;SDS011;22469;48.150;14.004;2022-07-18T08:55:43;3.30;;;3.10;;
3259;SDS011;22469;48.150;14.004;2022-07-18T08:58:12;3.17;;;2.97;;
3259;SDS011;22469;48.150;14.004;2022-07-18T09:01:01;3.20;;;2.90;;
3259;SDS011;22469;48.150;14.004;2022-07-18T09:03:28;2.90;;;2.70;;
3259;SDS011;22469;48.150;14.004;2022-07-18T09:06:09;4.17;;;3.27;;
3259;SDS011;22469;48.150;14.004;2022-07-18T09:08:56;3.23;;;2.57;;
3259;SDS011;22469;48.150;14.004;2022-07-18T09:11:26;5.30;;;2.93;;
3259;SDS011;22469;48.150;14.004;2022-07-18T09:14:35;7.50;;;3.13;;
3259;SDS011;22469;48.150;14.004;2022-07-18T09:19:42;3.50;;;3.20;;
3259;SDS011;22469;48.150;14.004;2022-07-18T09:22:23;3.17;;;2.83;;
3259;SDS011;22469;48.150;14.004;2022-07-18T09:24:55;3.73;;;2.67;;
3259;SDS011;22469;48.150;14.004;2022-07-18T09:32:51;3.13;;;2.93;;
3259;SDS011;22469;48.150;14.004;2022-07-18T09:35:31;4.00;;;3.10;;
3259;SDS011;22469;48.150;14.004;2022-07-18T09:38:09;2.70;;;2.10;;
3259;SDS011;22469;48.150;14.004;2022-07-18T09:40:43;2.87;;;2.67;;
3259;SDS011;22469;48.150;14.004;2022-07-18T09:43:17;2.40;;;2.30;;
3259;SDS011;22469;48.150;14.004;2022-07-18T09:45:50;3.57;;;2.53;;
3259;SDS011;22469;48.150;14.004;2022-07-18T09:48:22;2.77;;;2.57;;
3259;SDS011;22469;48.150;14.004;2022-07-18T09:50:55;3.53;;;2.83;;
3259;SDS011;22469;48.150;14.004;2022-07-18T09:56:08;3.27;;;2.97;;
3259;SDS011;22469;48.150;14.004;2022-07-18T09:58:41;3.17;;;2.90;;
3259;SDS011;22469;48.150;14.004;2022-07-18T10:01:17;4.53;;;3.13;;
3259;SDS011;22469;48.150;14.004;2022-07-18T10:03:45;3.13;;;2.40;;
3259;SDS011;22469;48.150;14.004;2022-07-18T10:06:15;2.60;;;2.40;;
3259;SDS011;22469;48.150;14.004;2022-07-18T10:08:44;2.90;;;2.40;;
3259;SDS011;22469;48.150;14.004;2022-07-18T10:11:12;2.53;;;2.13;;
3259;SDS011;22469;48.150;14.004;2022-07-18T10:13:39;2.03;;;1.93;;
3259;SDS011;22469;48.150;14.004;2022-07-18T10:16:06;2.27;;;2.17;;
3259;SDS011;22469;48.150;14.004;2022-07-18T10:18:35;5.70;;;2.77;;
3259;SDS011;22469;48.150;14.004;2022-07-18T10:21:09;2.47;;;2.37;;
3259;SDS011;22469;48.150;14.004;2022-07-18T10:23:39;2.50;;;2.30;;
3259;SDS011;22469;48.150;14.004;2022-07-18T10:26:19;2.43;;;2.30;;
3259;SDS011;22469;48.150;14.004;2022-07-18T10:31:23;5.80;;;2.70;;
3259;SDS011;22469;48.150;14.004;2022-07-18T10:33:55;4.80;;;2.50;;
3259;SDS011;22469;48.150;14.004;2022-07-18T10:39:18;2.43;;;2.23;;
3259;SDS011;22469;48.150;14.004;2022-07-18T10:50:15;1.97;;;1.87;;
3259;SDS011;22469;48.150;14.004;2022-07-18T10:57:38;2.83;;;2.57;;
3259;SDS011;22469;48.150;14.004;2022-07-18T11:00:11;2.20;;;2.10;;
3259;SDS011;22469;48.150;14.004;2022-07-18T11:02:48;2.53;;;2.43;;
3259;SDS011;22469;48.150;14.004;2022-07-18T11:05:34;2.60;;;2.40;;
3259;SDS011;22469;48.150;14.004;2022-07-18T11:16:12;2.93;;;2.73;;
3259;SDS011;22469;48.150;14.004;2022-07-18T11:23:50;4.37;;;2.30;;
3259;SDS011;22469;48.150;14.004;2022-07-18T11:26:21;2.00;;;1.87;;
3259;SDS011;22469;48.150;14.004;2022-07-18T11:29:00;2.60;;;2.40;;
3259;SDS011;22469;48.150;14.004;2022-07-18T11:31:44;4.30;;;2.47;;
3259;SDS011;22469;48.150;14.004;2022-07-18T11:34:18;2.10;;;2.00;;
3259;SDS011;22469;48.150;14.004;2022-07-18T11:37:01;3.83;;;2.60;;
3259;SDS011;22469;48.150;14.004;2022-07-18T11:39:30;2.40;;;2.30;;
3259;SDS011;22469;48.150;14.004;2022-07-18T11:42:00;2.40;;;1.90;;
3259;SDS011;22469;48.150;14.004;2022-07-18T11:44:28;3.13;;;2.07;;
3259;SDS011;22469;48.150;14.004;2022-07-18T11:47:29;2.30;;;2.10;;
3259;SDS011;22469;48.150;14.004;2022-07-18T11:49:55;1.90;;;1.77;;
3259;SDS011;22469;48.150;14.004;2022-07-18T11:52:23;3.97;;;2.13;;
3259;SDS011;22469;48.150;14.004;2022-07-18T11:54:57;1.43;;;1.37;;
3259;SDS011;22469;48.150;14.004;2022-07-18T11:57:28;1.57;;;1.47;;
3259;SDS011;22469;48.150;14.004;2022-07-18T11:59:58;1.63;;;1.53;;
3259;SDS011;22469;48.150;14.004;2022-07-18T12:05:40;1.60;;;1.50;;
3259;SDS011;22469;48.150;14.004;2022-07-18T12:14:00;2.07;;;1.97;;
3259;SDS011;22469;48.150;14.004;2022-07-18T12:19:10;1.60;;;1.50;;
3259;SDS011;22469;48.150;14.004;2022-07-18T12:24:24;1.80;;;1.70;;
3259;SDS011;22469;48.150;14.004;2022-07-18T12:37:40;1.73;;;1.63;;
3259;SDS011;22469;48.150;14.004;2022-07-18T12:40:12;1.47;;;1.47;;
3259;SDS011;22469;48.150;14.004;2022-07-18T12:43:01;1.60;;;1.50;;
3259;SDS011;22469;48.150;14.004;2022-07-18T12:45:35;1.70;;;1.60;;
3259;SDS011;22469;48.150;14.004;2022-07-18T12:48:06;2.60;;;1.87;;
3259;SDS011;22469;48.150;14.004;2022-07-18T12:50:38;4.27;;;2.00;;
3259;SDS011;22469;48.150;14.004;2022-07-18T12:53:07;2.27;;;2.00;;
3259;SDS011;22469;48.150;14.004;2022-07-18T12:55:35;2.50;;;1.63;;
3259;SDS011;22469;48.150;14.004;2022-07-18T12:58:03;2.03;;;1.93;;
3259;SDS011;22469;48.150;14.004;2022-07-18T13:00:32;1.47;;;1.23;;
3259;SDS011;22469;48.150;14.004;2022-07-18T13:02:59;1.97;;;1.80;;
3259;SDS011;22469;48.150;14.004;2022-07-18T13:05:28;1.60;;;1.50;;
3259;SDS011;22469;48.150;14.004;2022-07-18T13:07:56;2.63;;;1.40;;
3259;SDS011;22469;48.150;14.004;2022-07-18T13:10:24;1.70;;;1.60;;
3259;SDS011;22469;48.150;14.004;2022-07-18T13:12:52;1.20;;;1.20;;
3259;SDS011;22469;48.150;14.004;2022-07-18T13:15:19;2.03;;;1.77;;
3259;SDS011;22469;48.150;14.004;2022-07-18T13:17:47;1.70;;;1.60;;
3259;SDS011;22469;48.150;14.004;2022-07-18T13:20:16;3.97;;;1.40;;
3259;SDS011;22469;48.150;14.004;2022-07-18T13:22:44;1.60;;;1.50;;
3259;SDS011;22469;48.150;14.004;2022-07-18T13:25:18;3.23;;;1.50;;
3259;SDS011;22469;48.150;14.004;2022-07-18T13:27:48;2.20;;;1.60;;
3259;SDS011;22469;48.150;14.004;2022-07-18T13:30:16;1.83;;;1.70;;
3259;SDS011;22469;48.150;14.004;2022-07-18T13:32:44;1.70;;;1.50;;
3259;SDS011;22469;48.150;14.004;2022-07-18T13:35:12;1.53;;;1.53;;
3259;SDS011;22469;48.150;14.004;2022-07-18T13:37:40;1.80;;;1.60;;
3259;SDS011;22469;48.150;14.004;2022-07-18T13:40:08;1.57;;;1.47;;
3259;SDS011;22469;48.150;14.004;2022-07-18T13:42:37;1.40;;;1.23;;
3259;SDS011;22469;48.150;14.004;2022-07-18T13:45:04;2.73;;;1.70;;
3259;SDS011;22469;48.150;14.004;2022-07-18T13:47:32;2.00;;;1.77;;
3259;SDS011;22469;48.150;14.004;2022-07-18T13:50:00;2.00;;;1.30;;
3259;SDS011;22469;48.150;14.004;2022-07-18T13:52:27;2.43;;;1.70;;
3259;SDS011;22469;48.150;14.004;2022-07-18T13:54:54;2.13;;;1.80;;
3259;SDS011;22469;48.150;14.004;2022-07-18T13:57:21;2.13;;;1.47;;
3259;SDS011;22469;48.150;14.004;2022-07-18T13:59:48;3.47;;;1.50;;
3259;SDS011;22469;48.150;14.004;2022-07-18T14:02:16;2.60;;;1.37;;
3259;SDS011;22469;48.150;14.004;2022-07-18T14:04:45;3.90;;;1.47;;
3259;SDS011;22469;48.150;14.004;2022-07-18T14:07:32;3.00;;;1.67;;
3259;SDS011;22469;48.150;14.004;2022-07-18T14:09:59;3.80;;;1.27;;
3259;SDS011;22469;48.150;14.004;2022-07-18T14:12:27;1.53;;;1.20;;
3259;SDS011;22469;48.150;14.004;2022-07-18T14:14:54;1.57;;;1.47;;
3259;SDS011;22469;48.150;14.004;2022-07-18T14:17:21;1.70;;;1.53;;
3259;SDS011;22469;48.150;14.004;2022-07-18T14:19:48;1.83;;;1.73;;
3259;SDS011;22469;48.150;14.004;2022-07-18T14:22:16;1.87;;;1.60;;
3259;SDS011;22469;48.150;14.004;2022-07-18T14:24:43;1.23;;;1.23;;
3259;SDS011;22469;48.150;14.004;2022-07-18T14:27:10;1.63;;;1.50;;
3259;SDS011;22469;48.150;14.004;2022-07-18T14:29:37;1.70;;;1.60;;
3259;SDS011;22469;48.150;14.004;2022-07-18T14:32:04;2.50;;;1.33;;
3259;SDS011;22469;48.150;14.004;2022-07-18T14:34:32;1.30;;;1.30;;
3259;SDS011;22469;48.150;14.004;2022-07-18T14:37:00;10.67;;;1.80;;
3259;SDS011;22469;48.150;14.004;2022-07-18T14:39:28;1.70;;;1.60;;
3259;SDS011;22469;48.150;14.004;2022-07-18T14:41:55;1.57;;;1.40;;
3259;SDS011;22469;48.150;14.004;2022-07-18T14:44:24;2.20;;;1.40;;
3259;SDS011;22469;48.150;14.004;2022-07-18T14:46:53;3.80;;;1.17;;
3259;SDS011;22469;48.150;14.004;2022-07-18T14:49:20;1.83;;;1.60;;
3259;SDS011;22469;48.150;14.004;2022-07-18T14:51:48;1.27;;;1.27;;
3259;SDS011;22469;48.150;14.004;2022-07-18T14:54:21;1.20;;;1.20;;
3259;SDS011;22469;48.150;14.004;2022-07-18T14:56:49;1.60;;;1.50;;
3259;SDS011;22469;48.150;14.004;2022-07-18T14:59:18;1.50;;;1.40;;
3259;SDS011;22469;48.150;14.004;2022-07-18T15:01:46;1.40;;;1.30;;
3259;SDS011;22469;48.150;14.004;2022-07-18T15:04:14;2.70;;;1.70;;
3259;SDS011;22469;48.150;14.004;2022-07-18T15:06:44;1.63;;;1.30;;
3259;SDS011;22469;48.150;14.004;2022-07-18T15:09:13;1.20;;;1.20;;
3259;SDS011;22469;48.150;14.004;2022-07-18T15:11:40;1.00;;;1.00;;
3259;SDS011;22469;48.150;14.004;2022-07-18T15:14:08;1.47;;;1.20;;
3259;SDS011;22469;48.150;14.004;2022-07-18T15:16:37;1.00;;;1.00;;
3259;SDS011;22469;48.150;14.004;2022-07-18T15:19:05;2.10;;;0.90;;
3259;SDS011;22469;48.150;14.004;2022-07-18T15:21:32;0.90;;;0.90;;
3259;SDS011;22469;48.150;14.004;2022-07-18T15:23:59;1.80;;;1.00;;
3259;SDS011;22469;48.150;14.004;2022-07-18T15:26:27;1.23;;;0.90;;
3259;SDS011;22469;48.150;14.004;2022-07-18T15:28:54;1.20;;;1.10;;
3259;SDS011;22469;48.150;14.004;2022-07-18T15:31:21;2.30;;;1.10;;
3259;SDS011;22469;48.150;14.004;2022-07-18T15:33:48;2.33;;;1.50;;
3259;SDS011;22469;48.150;14.004;2022-07-18T15:36:15;1.13;;;1.13;;
3259;SDS011;22469;48.150;14.004;2022-07-18T15:38:42;1.47;;;0.90;;
3259;SDS011;22469;48.150;14.004;2022-07-18T15:41:10;1.50;;;1.40;;
3259;SDS011;22469;48.150;14.004;2022-07-18T15:43:39;2.00;;;1.57;;
3259;SDS011;22469;48.150;14.004;2022-07-18T15:46:07;1.43;;;1.23;;
3259;SDS011;22469;48.150;14.004;2022-07-18T15:48:35;1.33;;;1.20;;
3259;SDS011;22469;48.150;14.004;2022-07-18T15:51:02;1.27;;;1.20;;
3259;SDS011;22469;48.150;14.004;2022-07-18T15:53:30;1.13;;;1.13;;
3259;SDS011;22469;48.150;14.004;2022-07-18T15:55:57;2.80;;;1.30;;
3259;SDS011;22469;48.150;14.004;2022-07-18T15:58:24;1.20;;;1.20;;
3259;SDS011;22469;48.150;14.004;2022-07-18T16:00:51;1.90;;;1.40;;
3259;SDS011;22469;48.150;14.004;2022-07-18T16:03:19;1.47;;;1.37;;
3259;SDS011;22469;48.150;14.004;2022-07-18T16:05:46;1.80;;;1.30;;
3259;SDS011;22469;48.150;14.004;2022-07-18T16:08:13;1.83;;;1.30;;